sensor_id;sensor_type;location;lat;lon;timestamp;temperature;humidity
29431;DHT22;16404;49.902;10.074;2023-04-08T00:01:41;9.70;58.10
29431;DHT22;16404;49.902;10.074;2023-04-08T00:04:25;9.60;58.10
29431;DHT22;16404;49.902;10.074;2023-04-08T00:07:10;9.60;58.00
29431;DHT22;16404;49.902;10.074;2023-04-08T00:09:55;9.60;58.00
29431;DHT22;16404;49.902;10.074;2023-04-08T00:12:39;9.60;57.80
29431;DHT22;16404;49.902;10.074;2023-04-08T00:15:24;9.60;57.70
29431;DHT22;16404;49.902;10.074;2023-04-08T00:18:09;9.50;57.60
29431;DHT22;16404;49.902;10.074;2023-04-08T00:20:53;9.40;57.60
29431;DHT22;16404;49.902;10.074;2023-04-08T00:23:38;9.40;57.70
29431;DHT22;16404;49.902;10.074;2023-04-08T00:26:22;9.40;57.80
29431;DHT22;16404;49.902;10.074;2023-04-08T00:29:07;9.30;57.70
29431;DHT22;16404;49.902;10.074;2023-04-08T00:31:51;9.30;57.60
29431;DHT22;16404;49.902;10.074;2023-04-08T00:34:36;9.20;57.60
29431;DHT22;16404;49.902;10.074;2023-04-08T00:37:21;9.10;57.70
29431;DHT22;16404;49.902;10.074;2023-04-08T00:40:06;9.10;58.30
29431;DHT22;16404;49.902;10.074;2023-04-08T00:42:51;9.10;57.60
29431;DHT22;16404;49.902;10.074;2023-04-08T00:45:35;9.00;57.30
29431;DHT22;16404;49.902;10.074;2023-04-08T00:48:20;8.90;57.40
29431;DHT22;16404;49.902;10.074;2023-04-08T00:51:05;8.80;57.50
29431;DHT22;16404;49.902;10.074;2023-04-08T00:53:50;8.80;57.40
29431;DHT22;16404;49.902;10.074;2023-04-08T00:56:35;8.70;57.50
29431;DHT22;16404;49.902;10.074;2023-04-08T00:59:20;8.70;57.60
29431;DHT22;16404;49.902;10.074;2023-04-08T01:08:25;8.60;57.50
29431;DHT22;16404;49.902;10.074;2023-04-08T01:11:12;8.50;57.30
29431;DHT22;16404;49.902;10.074;2023-04-08T01:13:57;8.50;57.20
29431;DHT22;16404;49.902;10.074;2023-04-08T01:16:43;8.40;57.20
29431;DHT22;16404;49.902;10.074;2023-04-08T01:19:36;8.40;57.30
29431;DHT22;16404;49.902;10.074;2023-04-08T01:25:37;8.30;57.50
29431;DHT22;16404;49.902;10.074;2023-04-08T01:28:24;8.30;57.70
29431;DHT22;16404;49.902;10.074;2023-04-08T01:31:10;8.30;57.70
29431;DHT22;16404;49.902;10.074;2023-04-08T01:33:55;8.30;57.80
29431;DHT22;16404;49.902;10.074;2023-04-08T01:36:43;8.30;57.90
29431;DHT22;16404;49.902;10.074;2023-04-08T01:39:30;8.30;58.00
29431;DHT22;16404;49.902;10.074;2023-04-08T01:42:15;8.40;58.10
29431;DHT22;16404;49.902;10.074;2023-04-08T01:45:03;8.30;58.00
29431;DHT22;16404;49.902;10.074;2023-04-08T01:47:48;8.30;58.00
29431;DHT22;16404;49.902;10.074;2023-04-08T01:50:33;8.30;58.00
29431;DHT22;16404;49.902;10.074;2023-04-08T01:53:18;8.40;58.00
29431;DHT22;16404;49.902;10.074;2023-04-08T01:56:11;8.40;58.00
29431;DHT22;16404;49.902;10.074;2023-04-08T01:58:59;8.40;58.10
29431;DHT22;16404;49.902;10.074;2023-04-08T02:01:45;8.50;58.10
29431;DHT22;16404;49.902;10.074;2023-04-08T02:04:30;8.50;58.10
29431;DHT22;16404;49.902;10.074;2023-04-08T02:07:16;8.60;58.10
29431;DHT22;16404;49.902;10.074;2023-04-08T02:10:01;8.60;58.10
29431;DHT22;16404;49.902;10.074;2023-04-08T02:12:47;8.60;58.00
29431;DHT22;16404;49.902;10.074;2023-04-08T02:15:33;8.60;58.10
29431;DHT22;16404;49.902;10.074;2023-04-08T02:18:24;8.60;58.10
29431;DHT22;16404;49.902;10.074;2023-04-08T02:21:13;8.70;58.30
29431;DHT22;16404;49.902;10.074;2023-04-08T02:24:03;8.70;58.30
29431;DHT22;16404;49.902;10.074;2023-04-08T02:26:50;8.70;58.20
29431;DHT22;16404;49.902;10.074;2023-04-08T02:29:36;8.80;58.10
29431;DHT22;16404;49.902;10.074;2023-04-08T02:32:23;8.80;58.00
29431;DHT22;16404;49.902;10.074;2023-04-08T02:35:11;8.80;57.80
29431;DHT22;16404;49.902;10.074;2023-04-08T02:37:56;8.80;57.90
29431;DHT22;16404;49.902;10.074;2023-04-08T02:40:40;8.80;57.90
29431;DHT22;16404;49.902;10.074;2023-04-08T02:43:25;8.90;58.00
29431;DHT22;16404;49.902;10.074;2023-04-08T02:46:15;8.90;58.00
29431;DHT22;16404;49.902;10.074;2023-04-08T02:48:59;8.90;58.00
29431;DHT22;16404;49.902;10.074;2023-04-08T02:51:44;8.90;57.70
29431;DHT22;16404;49.902;10.074;2023-04-08T02:54:28;8.90;57.70
29431;DHT22;16404;49.902;10.074;2023-04-08T02:57:13;8.90;57.70
29431;DHT22;16404;49.902;10.074;2023-04-08T02:59:58;8.90;57.50
29431;DHT22;16404;49.902;10.074;2023-04-08T03:02:42;8.90;57.60
29431;DHT22;16404;49.902;10.074;2023-04-08T03:05:27;8.90;57.70
29431;DHT22;16404;49.902;10.074;2023-04-08T03:08:11;8.90;57.70
29431;DHT22;16404;49.902;10.074;2023-04-08T03:10:56;8.80;57.70
29431;DHT22;16404;49.902;10.074;2023-04-08T03:13:41;8.90;57.80
29431;DHT22;16404;49.902;10.074;2023-04-08T03:16:26;8.90;57.80
29431;DHT22;16404;49.902;10.074;2023-04-08T03:19:10;8.90;58.00
29431;DHT22;16404;49.902;10.074;2023-04-08T03:21:54;8.90;57.90
29431;DHT22;16404;49.902;10.074;2023-04-08T03:24:39;8.80;57.80
29431;DHT22;16404;49.902;10.074;2023-04-08T03:27:24;8.80;58.00
29431;DHT22;16404;49.902;10.074;2023-04-08T03:30:08;8.90;58.20
29431;DHT22;16404;49.902;10.074;2023-04-08T03:32:53;8.90;58.20
29431;DHT22;16404;49.902;10.074;2023-04-08T03:35:38;8.90;58.20
29431;DHT22;16404;49.902;10.074;2023-04-08T03:38:22;8.90;58.40
29431;DHT22;16404;49.902;10.074;2023-04-08T03:41:07;8.90;58.20
29431;DHT22;16404;49.902;10.074;2023-04-08T03:43:51;9.00;58.20
29431;DHT22;16404;49.902;10.074;2023-04-08T03:46:36;9.00;58.10
29431;DHT22;16404;49.902;10.074;2023-04-08T03:49:21;9.00;57.90
29431;DHT22;16404;49.902;10.074;2023-04-08T03:52:05;9.00;57.80
29431;DHT22;16404;49.902;10.074;2023-04-08T03:54:50;9.00;57.80
29431;DHT22;16404;49.902;10.074;2023-04-08T03:57:35;9.00;58.00
29431;DHT22;16404;49.902;10.074;2023-04-08T04:00:19;9.00;58.00
29431;DHT22;16404;49.902;10.074;2023-04-08T04:03:04;9.00;58.00
29431;DHT22;16404;49.902;10.074;2023-04-08T04:05:48;9.00;58.10
29431;DHT22;16404;49.902;10.074;2023-04-08T04:08:33;9.00;58.20
29431;DHT22;16404;49.902;10.074;2023-04-08T04:11:18;9.00;58.30
29431;DHT22;16404;49.902;10.074;2023-04-08T04:14:03;9.00;58.30
29431;DHT22;16404;49.902;10.074;2023-04-08T04:16:47;9.00;58.20
29431;DHT22;16404;49.902;10.074;2023-04-08T04:19:32;9.00;58.30
29431;DHT22;16404;49.902;10.074;2023-04-08T04:22:16;9.00;58.40
29431;DHT22;16404;49.902;10.074;2023-04-08T04:25:01;9.00;58.50
29431;DHT22;16404;49.902;10.074;2023-04-08T04:27:45;9.00;58.60
29431;DHT22;16404;49.902;10.074;2023-04-08T04:30:30;9.00;58.70
29431;DHT22;16404;49.902;10.074;2023-04-08T04:33:14;8.90;58.70
29431;DHT22;16404;49.902;10.074;2023-04-08T04:35:59;8.90;58.90
29431;DHT22;16404;49.902;10.074;2023-04-08T04:38:44;8.90;59.10
29431;DHT22;16404;49.902;10.074;2023-04-08T04:41:29;8.90;59.30
29431;DHT22;16404;49.902;10.074;2023-04-08T04:44:13;8.90;59.40
29431;DHT22;16404;49.902;10.074;2023-04-08T04:46:59;8.90;59.40
29431;DHT22;16404;49.902;10.074;2023-04-08T04:49:44;8.90;59.40
29431;DHT22;16404;49.902;10.074;2023-04-08T04:52:29;9.00;59.50
29431;DHT22;16404;49.902;10.074;2023-04-08T04:55:13;9.00;59.20
29431;DHT22;16404;49.902;10.074;2023-04-08T04:57:58;9.10;58.90
29431;DHT22;16404;49.902;10.074;2023-04-08T05:00:44;9.00;58.90
29431;DHT22;16404;49.902;10.074;2023-04-08T05:03:29;9.00;59.00
29431;DHT22;16404;49.902;10.074;2023-04-08T05:06:13;9.00;59.00
29431;DHT22;16404;49.902;10.074;2023-04-08T05:08:58;9.00;59.10
29431;DHT22;16404;49.902;10.074;2023-04-08T05:11:43;9.10;59.30
29431;DHT22;16404;49.902;10.074;2023-04-08T05:14:30;9.10;59.40
29431;DHT22;16404;49.902;10.074;2023-04-08T05:17:15;9.10;59.70
29431;DHT22;16404;49.902;10.074;2023-04-08T05:19:59;9.20;59.80
29431;DHT22;16404;49.902;10.074;2023-04-08T05:22:44;9.20;60.00
29431;DHT22;16404;49.902;10.074;2023-04-08T05:25:29;9.30;60.20
29431;DHT22;16404;49.902;10.074;2023-04-08T05:28:13;9.30;60.10
29431;DHT22;16404;49.902;10.074;2023-04-08T05:30:58;9.40;59.90
29431;DHT22;16404;49.902;10.074;2023-04-08T05:33:43;9.40;59.70
29431;DHT22;16404;49.902;10.074;2023-04-08T05:36:28;9.40;59.80
29431;DHT22;16404;49.902;10.074;2023-04-08T05:39:12;9.40;59.90
29431;DHT22;16404;49.902;10.074;2023-04-08T05:41:57;9.50;59.90
29431;DHT22;16404;49.902;10.074;2023-04-08T05:44:42;9.40;59.90
29431;DHT22;16404;49.902;10.074;2023-04-08T05:47:27;9.50;60.00
29431;DHT22;16404;49.902;10.074;2023-04-08T05:50:11;9.50;59.90
29431;DHT22;16404;49.902;10.074;2023-04-08T05:52:56;9.60;59.80
29431;DHT22;16404;49.902;10.074;2023-04-08T05:55:40;9.60;59.70
29431;DHT22;16404;49.902;10.074;2023-04-08T05:58:25;9.70;59.70
29431;DHT22;16404;49.902;10.074;2023-04-08T06:01:09;9.70;59.80
29431;DHT22;16404;49.902;10.074;2023-04-08T06:03:54;9.70;59.80
29431;DHT22;16404;49.902;10.074;2023-04-08T06:06:41;9.80;59.70
29431;DHT22;16404;49.902;10.074;2023-04-08T06:09:26;9.80;59.60
29431;DHT22;16404;49.902;10.074;2023-04-08T06:12:10;9.80;59.40
29431;DHT22;16404;49.902;10.074;2023-04-08T06:14:55;9.90;59.00
29431;DHT22;16404;49.902;10.074;2023-04-08T06:17:39;9.90;58.90
29431;DHT22;16404;49.902;10.074;2023-04-08T06:20:24;10.00;58.80
29431;DHT22;16404;49.902;10.074;2023-04-08T06:23:09;10.00;58.70
29431;DHT22;16404;49.902;10.074;2023-04-08T06:25:54;10.00;58.60
29431;DHT22;16404;49.902;10.074;2023-04-08T06:28:38;10.00;58.50
29431;DHT22;16404;49.902;10.074;2023-04-08T06:31:23;10.00;58.50
29431;DHT22;16404;49.902;10.074;2023-04-08T06:34:10;10.00;58.50
29431;DHT22;16404;49.902;10.074;2023-04-08T06:36:55;9.90;58.70
29431;DHT22;16404;49.902;10.074;2023-04-08T06:39:40;10.00;58.90
29431;DHT22;16404;49.902;10.074;2023-04-08T06:42:24;10.10;58.80
29431;DHT22;16404;49.902;10.074;2023-04-08T06:45:34;10.10;58.70
29431;DHT22;16404;49.902;10.074;2023-04-08T06:48:18;10.20;58.90
29431;DHT22;16404;49.902;10.074;2023-04-08T06:51:03;10.30;59.20
29431;DHT22;16404;49.902;10.074;2023-04-08T06:53:48;10.30;59.20
29431;DHT22;16404;49.902;10.074;2023-04-08T06:56:33;10.40;59.10
29431;DHT22;16404;49.902;10.074;2023-04-08T06:59:17;10.50;59.20
29431;DHT22;16404;49.902;10.074;2023-04-08T07:02:02;10.60;59.00
29431;DHT22;16404;49.902;10.074;2023-04-08T07:04:47;10.70;59.00
29431;DHT22;16404;49.902;10.074;2023-04-08T07:07:31;10.80;58.80
29431;DHT22;16404;49.902;10.074;2023-04-08T07:10:16;10.90;58.80
29431;DHT22;16404;49.902;10.074;2023-04-08T07:13:01;10.90;58.80
29431;DHT22;16404;49.902;10.074;2023-04-08T07:15:45;11.00;58.60
29431;DHT22;16404;49.902;10.074;2023-04-08T07:18:30;11.00;58.50
29431;DHT22;16404;49.902;10.074;2023-04-08T07:21:15;11.00;58.20
29431;DHT22;16404;49.902;10.074;2023-04-08T07:24:01;11.00;58.20
29431;DHT22;16404;49.902;10.074;2023-04-08T07:26:46;11.00;58.10
29431;DHT22;16404;49.902;10.074;2023-04-08T07:29:31;11.10;58.00
29431;DHT22;16404;49.902;10.074;2023-04-08T07:32:15;11.10;57.90
29431;DHT22;16404;49.902;10.074;2023-04-08T07:35:00;11.10;57.70
29431;DHT22;16404;49.902;10.074;2023-04-08T07:37:45;11.10;57.70
29431;DHT22;16404;49.902;10.074;2023-04-08T07:40:30;11.00;57.70
29431;DHT22;16404;49.902;10.074;2023-04-08T07:43:14;11.00;57.50
29431;DHT22;16404;49.902;10.074;2023-04-08T07:46:00;11.00;57.50
29431;DHT22;16404;49.902;10.074;2023-04-08T07:48:46;11.00;57.50
29431;DHT22;16404;49.902;10.074;2023-04-08T07:51:31;11.10;57.40
29431;DHT22;16404;49.902;10.074;2023-04-08T07:54:15;11.10;57.30
29431;DHT22;16404;49.902;10.074;2023-04-08T07:57:00;11.10;57.30
29431;DHT22;16404;49.902;10.074;2023-04-08T07:59:48;11.10;57.10
29431;DHT22;16404;49.902;10.074;2023-04-08T08:02:33;11.10;57.10
29431;DHT22;16404;49.902;10.074;2023-04-08T08:05:17;11.10;57.00
29431;DHT22;16404;49.902;10.074;2023-04-08T08:08:02;11.10;57.10
29431;DHT22;16404;49.902;10.074;2023-04-08T08:10:47;11.10;57.10
29431;DHT22;16404;49.902;10.074;2023-04-08T08:13:32;11.20;57.20
29431;DHT22;16404;49.902;10.074;2023-04-08T08:16:17;11.30;57.20
29431;DHT22;16404;49.902;10.074;2023-04-08T08:19:01;11.30;57.00
29431;DHT22;16404;49.902;10.074;2023-04-08T08:21:48;11.40;56.80
29431;DHT22;16404;49.902;10.074;2023-04-08T08:24:32;11.40;56.70
29431;DHT22;16404;49.902;10.074;2023-04-08T08:27:17;11.50;56.80
29431;DHT22;16404;49.902;10.074;2023-04-08T08:30:02;11.60;56.70
29431;DHT22;16404;49.902;10.074;2023-04-08T08:32:47;11.60;56.50
29431;DHT22;16404;49.902;10.074;2023-04-08T08:35:33;11.70;56.40
29431;DHT22;16404;49.902;10.074;2023-04-08T08:38:18;11.70;56.40
29431;DHT22;16404;49.902;10.074;2023-04-08T08:41:02;11.80;56.20
29431;DHT22;16404;49.902;10.074;2023-04-08T08:43:47;11.90;56.00
29431;DHT22;16404;49.902;10.074;2023-04-08T08:46:32;12.10;56.00
29431;DHT22;16404;49.902;10.074;2023-04-08T08:49:16;12.10;55.60
29431;DHT22;16404;49.902;10.074;2023-04-08T08:52:01;12.20;55.80
29431;DHT22;16404;49.902;10.074;2023-04-08T08:54:46;12.30;55.90
29431;DHT22;16404;49.902;10.074;2023-04-08T08:57:30;12.40;55.80
29431;DHT22;16404;49.902;10.074;2023-04-08T09:00:15;12.60;55.60
29431;DHT22;16404;49.902;10.074;2023-04-08T09:06:17;13.00;55.50
29431;DHT22;16404;49.902;10.074;2023-04-08T09:09:02;13.30;55.20
29431;DHT22;16404;49.902;10.074;2023-04-08T09:11:49;13.60;55.10
29431;DHT22;16404;49.902;10.074;2023-04-08T09:14:47;13.80;54.40
29431;DHT22;16404;49.902;10.074;2023-04-08T09:17:33;14.10;54.00
29431;DHT22;16404;49.902;10.074;2023-04-08T09:20:19;14.40;53.40
29431;DHT22;16404;49.902;10.074;2023-04-08T09:23:03;14.60;52.70
29431;DHT22;16404;49.902;10.074;2023-04-08T09:25:48;14.80;52.40
29431;DHT22;16404;49.902;10.074;2023-04-08T09:28:32;15.00;51.80
29431;DHT22;16404;49.902;10.074;2023-04-08T09:31:25;15.20;51.40
29431;DHT22;16404;49.902;10.074;2023-04-08T09:34:15;15.30;51.20
29431;DHT22;16404;49.902;10.074;2023-04-08T09:37:06;15.40;50.90
29431;DHT22;16404;49.902;10.074;2023-04-08T09:39:51;15.60;51.00
29431;DHT22;16404;49.902;10.074;2023-04-08T09:42:39;15.80;50.70
29431;DHT22;16404;49.902;10.074;2023-04-08T09:45:24;16.00;50.60
29431;DHT22;16404;49.902;10.074;2023-04-08T09:48:21;16.10;50.50
29431;DHT22;16404;49.902;10.074;2023-04-08T09:51:10;16.20;49.50
29431;DHT22;16404;49.902;10.074;2023-04-08T09:53:59;16.30;49.10
29431;DHT22;16404;49.902;10.074;2023-04-08T09:57:12;16.40;48.80
29431;DHT22;16404;49.902;10.074;2023-04-08T10:00:18;16.40;48.50
29431;DHT22;16404;49.902;10.074;2023-04-08T10:03:34;16.50;48.20
29431;DHT22;16404;49.902;10.074;2023-04-08T10:06:21;16.60;47.90
29431;DHT22;16404;49.902;10.074;2023-04-08T10:09:05;16.60;47.90
29431;DHT22;16404;49.902;10.074;2023-04-08T10:11:50;16.80;48.30
29431;DHT22;16404;49.902;10.074;2023-04-08T10:14:35;16.80;47.80
29431;DHT22;16404;49.902;10.074;2023-04-08T10:17:26;16.80;47.60
29431;DHT22;16404;49.902;10.074;2023-04-08T10:23:57;16.80;46.50
29431;DHT22;16404;49.902;10.074;2023-04-08T10:26:44;16.90;46.40
29431;DHT22;16404;49.902;10.074;2023-04-08T10:29:30;17.00;46.40
29431;DHT22;16404;49.902;10.074;2023-04-08T10:32:39;16.90;46.40
29431;DHT22;16404;49.902;10.074;2023-04-08T10:38:15;16.80;46.40
29431;DHT22;16404;49.902;10.074;2023-04-08T10:41:01;16.70;46.30
29431;DHT22;16404;49.902;10.074;2023-04-08T10:43:46;16.70;46.60
29431;DHT22;16404;49.902;10.074;2023-04-08T10:46:36;16.80;46.60
29431;DHT22;16404;49.902;10.074;2023-04-08T10:49:21;16.80;46.40
29431;DHT22;16404;49.902;10.074;2023-04-08T10:52:06;16.90;46.20
29431;DHT22;16404;49.902;10.074;2023-04-08T10:54:52;16.90;46.40
29431;DHT22;16404;49.902;10.074;2023-04-08T10:57:37;16.90;47.10
29431;DHT22;16404;49.902;10.074;2023-04-08T11:00:42;16.90;46.40
29431;DHT22;16404;49.902;10.074;2023-04-08T11:03:26;16.80;46.20
29431;DHT22;16404;49.902;10.074;2023-04-08T11:06:11;16.90;46.40
29431;DHT22;16404;49.902;10.074;2023-04-08T11:08:56;16.90;46.60
29431;DHT22;16404;49.902;10.074;2023-04-08T11:11:44;16.90;46.70
29431;DHT22;16404;49.902;10.074;2023-04-08T11:14:28;16.90;46.60
29431;DHT22;16404;49.902;10.074;2023-04-08T11:17:14;17.00;46.50
29431;DHT22;16404;49.902;10.074;2023-04-08T11:19:59;17.00;46.30
29431;DHT22;16404;49.902;10.074;2023-04-08T11:22:46;17.00;46.40
29431;DHT22;16404;49.902;10.074;2023-04-08T11:25:31;17.00;46.70
29431;DHT22;16404;49.902;10.074;2023-04-08T11:28:16;17.00;46.70
29431;DHT22;16404;49.902;10.074;2023-04-08T11:31:01;17.00;46.60
29431;DHT22;16404;49.902;10.074;2023-04-08T11:33:52;17.10;46.40
29431;DHT22;16404;49.902;10.074;2023-04-08T11:36:39;17.20;46.40
29431;DHT22;16404;49.902;10.074;2023-04-08T11:39:24;17.20;46.40
29431;DHT22;16404;49.902;10.074;2023-04-08T11:42:24;17.30;46.40
29431;DHT22;16404;49.902;10.074;2023-04-08T11:45:11;17.40;46.50
29431;DHT22;16404;49.902;10.074;2023-04-08T11:47:56;17.40;46.40
29431;DHT22;16404;49.902;10.074;2023-04-08T11:50:41;17.40;46.40
29431;DHT22;16404;49.902;10.074;2023-04-08T11:53:26;17.50;46.30
29431;DHT22;16404;49.902;10.074;2023-04-08T11:56:18;17.50;46.30
29431;DHT22;16404;49.902;10.074;2023-04-08T11:59:03;17.50;46.60
29431;DHT22;16404;49.902;10.074;2023-04-08T12:01:48;17.60;46.50
29431;DHT22;16404;49.902;10.074;2023-04-08T12:04:32;17.60;46.30
29431;DHT22;16404;49.902;10.074;2023-04-08T12:07:20;17.70;46.20
29431;DHT22;16404;49.902;10.074;2023-04-08T12:10:09;17.70;46.00
29431;DHT22;16404;49.902;10.074;2023-04-08T12:12:54;17.70;46.00
29431;DHT22;16404;49.902;10.074;2023-04-08T12:15:38;17.70;46.00
29431;DHT22;16404;49.902;10.074;2023-04-08T12:18:23;17.70;46.00
29431;DHT22;16404;49.902;10.074;2023-04-08T12:21:11;17.70;46.30
29431;DHT22;16404;49.902;10.074;2023-04-08T12:23:55;17.60;46.60
29431;DHT22;16404;49.902;10.074;2023-04-08T12:26:40;17.60;47.50
29431;DHT22;16404;49.902;10.074;2023-04-08T12:29:25;17.70;47.00
29431;DHT22;16404;49.902;10.074;2023-04-08T12:32:09;17.70;46.60
29431;DHT22;16404;49.902;10.074;2023-04-08T12:34:54;17.80;46.60
29431;DHT22;16404;49.902;10.074;2023-04-08T12:37:38;17.80;46.50
29431;DHT22;16404;49.902;10.074;2023-04-08T12:40:23;17.80;46.20
29431;DHT22;16404;49.902;10.074;2023-04-08T12:43:07;17.80;46.20
29431;DHT22;16404;49.902;10.074;2023-04-08T12:45:52;17.70;46.20
29431;DHT22;16404;49.902;10.074;2023-04-08T12:48:37;17.70;46.30
29431;DHT22;16404;49.902;10.074;2023-04-08T12:51:21;17.70;46.50
29431;DHT22;16404;49.902;10.074;2023-04-08T12:54:06;17.70;46.50
29431;DHT22;16404;49.902;10.074;2023-04-08T12:56:51;17.60;46.30
29431;DHT22;16404;49.902;10.074;2023-04-08T12:59:36;17.60;46.40
29431;DHT22;16404;49.902;10.074;2023-04-08T13:02:22;17.50;46.50
29431;DHT22;16404;49.902;10.074;2023-04-08T13:05:09;17.50;46.30
29431;DHT22;16404;49.902;10.074;2023-04-08T13:07:54;17.50;46.20
29431;DHT22;16404;49.902;10.074;2023-04-08T13:10:39;17.50;46.40
29431;DHT22;16404;49.902;10.074;2023-04-08T13:13:25;17.40;46.50
29431;DHT22;16404;49.902;10.074;2023-04-08T13:16:09;17.40;46.50
29431;DHT22;16404;49.902;10.074;2023-04-08T13:18:54;17.40;46.50
29431;DHT22;16404;49.902;10.074;2023-04-08T13:21:38;17.40;46.50
29431;DHT22;16404;49.902;10.074;2023-04-08T13:24:23;17.30;46.60
29431;DHT22;16404;49.902;10.074;2023-04-08T13:27:07;17.30;46.60
29431;DHT22;16404;49.902;10.074;2023-04-08T13:29:52;17.20;46.60
29431;DHT22;16404;49.902;10.074;2023-04-08T13:32:36;17.10;46.60
29431;DHT22;16404;49.902;10.074;2023-04-08T13:35:21;17.20;46.90
29431;DHT22;16404;49.902;10.074;2023-04-08T13:38:06;17.10;47.00
29431;DHT22;16404;49.902;10.074;2023-04-08T13:40:50;17.10;47.00
29431;DHT22;16404;49.902;10.074;2023-04-08T13:43:35;17.00;46.90
29431;DHT22;16404;49.902;10.074;2023-04-08T13:46:19;17.00;47.10
29431;DHT22;16404;49.902;10.074;2023-04-08T13:49:04;17.00;47.00
29431;DHT22;16404;49.902;10.074;2023-04-08T13:51:48;17.00;47.10
29431;DHT22;16404;49.902;10.074;2023-04-08T13:54:33;17.00;47.10
29431;DHT22;16404;49.902;10.074;2023-04-08T13:57:17;17.00;47.20
29431;DHT22;16404;49.902;10.074;2023-04-08T14:00:02;16.90;47.40
29431;DHT22;16404;49.902;10.074;2023-04-08T14:02:54;17.00;47.60
29431;DHT22;16404;49.902;10.074;2023-04-08T14:05:39;17.00;47.60
29431;DHT22;16404;49.902;10.074;2023-04-08T14:08:23;16.90;47.70
29431;DHT22;16404;49.902;10.074;2023-04-08T14:11:08;16.90;47.70
29431;DHT22;16404;49.902;10.074;2023-04-08T14:13:52;16.80;48.30
29431;DHT22;16404;49.902;10.074;2023-04-08T14:16:37;16.80;47.70
29431;DHT22;16404;49.902;10.074;2023-04-08T14:19:22;16.70;47.80
29431;DHT22;16404;49.902;10.074;2023-04-08T14:22:06;16.70;47.90
29431;DHT22;16404;49.902;10.074;2023-04-08T14:24:51;16.70;48.10
29431;DHT22;16404;49.902;10.074;2023-04-08T14:27:35;16.60;47.90
29431;DHT22;16404;49.902;10.074;2023-04-08T14:30:20;16.60;47.50
29431;DHT22;16404;49.902;10.074;2023-04-08T14:33:05;16.60;47.50
29431;DHT22;16404;49.902;10.074;2023-04-08T14:35:51;16.60;47.40
29431;DHT22;16404;49.902;10.074;2023-04-08T14:38:36;16.60;47.10
29431;DHT22;16404;49.902;10.074;2023-04-08T14:41:22;16.50;46.60
29431;DHT22;16404;49.902;10.074;2023-04-08T14:44:09;16.50;46.30
29431;DHT22;16404;49.902;10.074;2023-04-08T14:46:53;16.40;46.00
29431;DHT22;16404;49.902;10.074;2023-04-08T14:49:38;16.20;46.00
29431;DHT22;16404;49.902;10.074;2023-04-08T14:52:23;16.10;46.10
29431;DHT22;16404;49.902;10.074;2023-04-08T14:55:08;16.10;46.70
29431;DHT22;16404;49.902;10.074;2023-04-08T14:57:52;16.10;46.40
29431;DHT22;16404;49.902;10.074;2023-04-08T15:00:37;16.10;46.30
29431;DHT22;16404;49.902;10.074;2023-04-08T15:03:22;16.10;46.00
29431;DHT22;16404;49.902;10.074;2023-04-08T15:06:15;16.00;45.80
29431;DHT22;16404;49.902;10.074;2023-04-08T15:09:01;16.00;45.80
29431;DHT22;16404;49.902;10.074;2023-04-08T15:11:46;16.00;45.70
29431;DHT22;16404;49.902;10.074;2023-04-08T15:14:31;15.90;45.80
29431;DHT22;16404;49.902;10.074;2023-04-08T15:17:15;16.00;45.60
29431;DHT22;16404;49.902;10.074;2023-04-08T15:20:00;15.80;45.40
29431;DHT22;16404;49.902;10.074;2023-04-08T15:22:45;15.70;45.50
29431;DHT22;16404;49.902;10.074;2023-04-08T15:25:30;15.60;45.80
29431;DHT22;16404;49.902;10.074;2023-04-08T15:28:14;15.70;46.10
29431;DHT22;16404;49.902;10.074;2023-04-08T15:30:59;15.70;46.10
29431;DHT22;16404;49.902;10.074;2023-04-08T15:33:45;15.70;46.30
29431;DHT22;16404;49.902;10.074;2023-04-08T15:36:29;15.60;46.40
29431;DHT22;16404;49.902;10.074;2023-04-08T15:39:14;15.70;46.60
29431;DHT22;16404;49.902;10.074;2023-04-08T15:41:58;15.60;46.50
29431;DHT22;16404;49.902;10.074;2023-04-08T15:44:43;15.60;46.60
29431;DHT22;16404;49.902;10.074;2023-04-08T15:47:27;15.60;46.90
29431;DHT22;16404;49.902;10.074;2023-04-08T15:50:12;15.50;47.00
29431;DHT22;16404;49.902;10.074;2023-04-08T15:52:57;15.50;47.10
29431;DHT22;16404;49.902;10.074;2023-04-08T15:55:42;15.40;47.20
29431;DHT22;16404;49.902;10.074;2023-04-08T15:58:27;15.40;47.30
29431;DHT22;16404;49.902;10.074;2023-04-08T16:01:11;15.30;47.20
29431;DHT22;16404;49.902;10.074;2023-04-08T16:03:56;15.30;47.40
29431;DHT22;16404;49.902;10.074;2023-04-08T16:06:40;15.30;47.30
29431;DHT22;16404;49.902;10.074;2023-04-08T16:09:25;15.20;47.00
29431;DHT22;16404;49.902;10.074;2023-04-08T16:12:10;15.00;47.20
29431;DHT22;16404;49.902;10.074;2023-04-08T16:14:54;14.90;47.50
29431;DHT22;16404;49.902;10.074;2023-04-08T16:17:39;14.90;47.60
29431;DHT22;16404;49.902;10.074;2023-04-08T16:20:24;14.80;47.60
29431;DHT22;16404;49.902;10.074;2023-04-08T16:23:08;14.70;47.70
29431;DHT22;16404;49.902;10.074;2023-04-08T16:25:53;14.70;47.70
29431;DHT22;16404;49.902;10.074;2023-04-08T16:28:37;14.70;47.80
29431;DHT22;16404;49.902;10.074;2023-04-08T16:31:23;14.60;47.80
29431;DHT22;16404;49.902;10.074;2023-04-08T16:34:07;14.60;47.90
29431;DHT22;16404;49.902;10.074;2023-04-08T16:36:52;14.60;48.00
29431;DHT22;16404;49.902;10.074;2023-04-08T16:39:36;14.70;48.00
29431;DHT22;16404;49.902;10.074;2023-04-08T16:42:22;14.70;47.80
29431;DHT22;16404;49.902;10.074;2023-04-08T16:45:07;14.70;47.90
29431;DHT22;16404;49.902;10.074;2023-04-08T16:47:52;14.60;48.00
29431;DHT22;16404;49.902;10.074;2023-04-08T16:50:37;14.60;48.10
29431;DHT22;16404;49.902;10.074;2023-04-08T16:53:22;14.70;48.20
29431;DHT22;16404;49.902;10.074;2023-04-08T16:56:13;14.80;48.20
29431;DHT22;16404;49.902;10.074;2023-04-08T16:58:58;14.80;48.10
29431;DHT22;16404;49.902;10.074;2023-04-08T17:01:43;14.80;47.90
29431;DHT22;16404;49.902;10.074;2023-04-08T17:04:28;14.80;47.90
29431;DHT22;16404;49.902;10.074;2023-04-08T17:07:12;14.80;47.70
29431;DHT22;16404;49.902;10.074;2023-04-08T17:09:57;14.70;47.70
29431;DHT22;16404;49.902;10.074;2023-04-08T17:12:42;14.50;47.70
29431;DHT22;16404;49.902;10.074;2023-04-08T17:15:26;14.50;48.00
29431;DHT22;16404;49.902;10.074;2023-04-08T17:18:11;14.40;48.10
29431;DHT22;16404;49.902;10.074;2023-04-08T17:20:55;14.40;48.20
29431;DHT22;16404;49.902;10.074;2023-04-08T17:23:40;14.30;48.10
29431;DHT22;16404;49.902;10.074;2023-04-08T17:26:24;14.20;48.00
29431;DHT22;16404;49.902;10.074;2023-04-08T17:29:09;14.20;48.10
29431;DHT22;16404;49.902;10.074;2023-04-08T17:31:54;14.20;48.80
29431;DHT22;16404;49.902;10.074;2023-04-08T17:34:38;14.10;48.10
29431;DHT22;16404;49.902;10.074;2023-04-08T17:37:23;14.10;48.10